sensor_id;sensor_type;location;lat;lon;timestamp;P1;durP1;ratioP1;P2;durP2;ratioP2
56329;SDS011;42236;48.058;10.632;2023-04-27T00:01:25;4.07;;;3.43;;
56329;SDS011;42236;48.058;10.632;2023-04-27T00:04:11;6.03;;;3.37;;
56329;SDS011;42236;48.058;10.632;2023-04-27T00:06:58;4.70;;;3.47;;
56329;SDS011;42236;48.058;10.632;2023-04-27T00:09:44;7.93;;;4.50;;
56329;SDS011;42236;48.058;10.632;2023-04-27T00:12:29;5.30;;;4.10;;
56329;SDS011;42236;48.058;10.632;2023-04-27T00:15:15;11.23;;;3.43;;
56329;SDS011;42236;48.058;10.632;2023-04-27T00:18:01;6.40;;;4.00;;
56329;SDS011;42236;48.058;10.632;2023-04-27T00:20:47;6.60;;;4.43;;
56329;SDS011;42236;48.058;10.632;2023-04-27T00:23:32;5.67;;;4.00;;
56329;SDS011;42236;48.058;10.632;2023-04-27T00:26:18;6.67;;;4.03;;
56329;SDS011;42236;48.058;10.632;2023-04-27T00:29:04;4.97;;;3.50;;
56329;SDS011;42236;48.058;10.632;2023-04-27T00:31:50;6.87;;;4.57;;
56329;SDS011;42236;48.058;10.632;2023-04-27T00:34:36;5.73;;;3.60;;
56329;SDS011;42236;48.058;10.632;2023-04-27T00:37:22;3.90;;;3.10;;
56329;SDS011;42236;48.058;10.632;2023-04-27T00:40:08;9.63;;;3.83;;
56329;SDS011;42236;48.058;10.632;2023-04-27T00:42:54;6.53;;;3.47;;
56329;SDS011;42236;48.058;10.632;2023-04-27T00:45:40;9.87;;;4.13;;
56329;SDS011;42236;48.058;10.632;2023-04-27T00:48:29;5.33;;;3.87;;
56329;SDS011;42236;48.058;10.632;2023-04-27T00:51:15;5.37;;;3.67;;
56329;SDS011;42236;48.058;10.632;2023-04-27T00:54:01;5.70;;;4.00;;
56329;SDS011;42236;48.058;10.632;2023-04-27T00:56:47;11.93;;;4.27;;
56329;SDS011;42236;48.058;10.632;2023-04-27T00:59:34;6.63;;;4.07;;
56329;SDS011;42236;48.058;10.632;2023-04-27T01:02:20;7.37;;;4.43;;
56329;SDS011;42236;48.058;10.632;2023-04-27T01:05:06;6.20;;;3.77;;
56329;SDS011;42236;48.058;10.632;2023-04-27T01:07:52;5.33;;;3.67;;
56329;SDS011;42236;48.058;10.632;2023-04-27T01:10:39;5.37;;;4.30;;
56329;SDS011;42236;48.058;10.632;2023-04-27T01:13:25;6.10;;;3.70;;
56329;SDS011;42236;48.058;10.632;2023-04-27T01:16:11;6.23;;;3.50;;
56329;SDS011;42236;48.058;10.632;2023-04-27T01:18:57;6.90;;;3.67;;
56329;SDS011;42236;48.058;10.632;2023-04-27T01:21:42;7.87;;;4.87;;
56329;SDS011;42236;48.058;10.632;2023-04-27T01:24:28;7.10;;;4.03;;
56329;SDS011;42236;48.058;10.632;2023-04-27T01:27:14;5.07;;;3.50;;
56329;SDS011;42236;48.058;10.632;2023-04-27T01:29:59;6.40;;;3.77;;
56329;SDS011;42236;48.058;10.632;2023-04-27T01:32:45;3.87;;;3.47;;
56329;SDS011;42236;48.058;10.632;2023-04-27T01:35:31;6.57;;;4.07;;
56329;SDS011;42236;48.058;10.632;2023-04-27T01:38:16;5.77;;;3.23;;
56329;SDS011;42236;48.058;10.632;2023-04-27T01:41:03;4.33;;;3.43;;
56329;SDS011;42236;48.058;10.632;2023-04-27T01:43:53;7.67;;;3.23;;
56329;SDS011;42236;48.058;10.632;2023-04-27T01:46:39;3.37;;;3.00;;
56329;SDS011;42236;48.058;10.632;2023-04-27T01:49:25;4.67;;;2.80;;
56329;SDS011;42236;48.058;10.632;2023-04-27T01:52:11;8.47;;;3.67;;
56329;SDS011;42236;48.058;10.632;2023-04-27T01:54:56;7.40;;;3.83;;
56329;SDS011;42236;48.058;10.632;2023-04-27T01:57:42;3.87;;;3.47;;
56329;SDS011;42236;48.058;10.632;2023-04-27T02:00:27;5.40;;;3.80;;
56329;SDS011;42236;48.058;10.632;2023-04-27T02:03:13;6.13;;;3.87;;
56329;SDS011;42236;48.058;10.632;2023-04-27T02:05:59;5.77;;;3.37;;
56329;SDS011;42236;48.058;10.632;2023-04-27T02:08:45;5.70;;;3.63;;
56329;SDS011;42236;48.058;10.632;2023-04-27T02:11:31;3.63;;;3.27;;
56329;SDS011;42236;48.058;10.632;2023-04-27T02:14:16;7.03;;;3.53;;
56329;SDS011;42236;48.058;10.632;2023-04-27T02:17:02;4.73;;;3.40;;
56329;SDS011;42236;48.058;10.632;2023-04-27T02:19:48;3.60;;;3.30;;
56329;SDS011;42236;48.058;10.632;2023-04-27T02:22:33;6.13;;;3.37;;
56329;SDS011;42236;48.058;10.632;2023-04-27T02:25:19;4.83;;;3.80;;
56329;SDS011;42236;48.058;10.632;2023-04-27T02:28:05;4.33;;;3.43;;
56329;SDS011;42236;48.058;10.632;2023-04-27T02:30:51;5.83;;;3.77;;
56329;SDS011;42236;48.058;10.632;2023-04-27T02:33:36;5.63;;;3.37;;
56329;SDS011;42236;48.058;10.632;2023-04-27T02:36:22;5.53;;;3.53;;
56329;SDS011;42236;48.058;10.632;2023-04-27T02:39:08;5.53;;;3.03;;
56329;SDS011;42236;48.058;10.632;2023-04-27T02:41:53;5.83;;;2.87;;
56329;SDS011;42236;48.058;10.632;2023-04-27T02:44:39;3.03;;;2.37;;
56329;SDS011;42236;48.058;10.632;2023-04-27T02:47:25;3.53;;;3.07;;
56329;SDS011;42236;48.058;10.632;2023-04-27T02:50:11;7.20;;;3.40;;
56329;SDS011;42236;48.058;10.632;2023-04-27T02:52:58;5.43;;;3.37;;
56329;SDS011;42236;48.058;10.632;2023-04-27T02:55:44;4.47;;;3.53;;
56329;SDS011;42236;48.058;10.632;2023-04-27T02:58:33;4.83;;;3.50;;
56329;SDS011;42236;48.058;10.632;2023-04-27T03:01:19;6.37;;;4.00;;
56329;SDS011;42236;48.058;10.632;2023-04-27T03:04:05;5.87;;;3.30;;
56329;SDS011;42236;48.058;10.632;2023-04-27T03:06:51;3.67;;;3.17;;
56329;SDS011;42236;48.058;10.632;2023-04-27T03:09:36;3.77;;;3.43;;
56329;SDS011;42236;48.058;10.632;2023-04-27T03:12:22;3.87;;;3.27;;
56329;SDS011;42236;48.058;10.632;2023-04-27T03:15:08;4.37;;;3.30;;
56329;SDS011;42236;48.058;10.632;2023-04-27T03:17:54;6.37;;;3.57;;
56329;SDS011;42236;48.058;10.632;2023-04-27T03:20:39;4.57;;;3.17;;
56329;SDS011;42236;48.058;10.632;2023-04-27T03:23:25;5.07;;;3.53;;
56329;SDS011;42236;48.058;10.632;2023-04-27T03:26:12;3.80;;;3.13;;
56329;SDS011;42236;48.058;10.632;2023-04-27T03:28:58;5.67;;;3.47;;
56329;SDS011;42236;48.058;10.632;2023-04-27T03:31:44;5.37;;;3.30;;
56329;SDS011;42236;48.058;10.632;2023-04-27T03:34:29;4.57;;;3.30;;
56329;SDS011;42236;48.058;10.632;2023-04-27T03:37:15;6.67;;;3.40;;
56329;SDS011;42236;48.058;10.632;2023-04-27T03:40:01;3.63;;;3.27;;
56329;SDS011;42236;48.058;10.632;2023-04-27T03:42:51;3.23;;;2.70;;
56329;SDS011;42236;48.058;10.632;2023-04-27T03:45:37;4.37;;;3.03;;
56329;SDS011;42236;48.058;10.632;2023-04-27T03:48:22;4.23;;;3.50;;
56329;SDS011;42236;48.058;10.632;2023-04-27T03:51:08;3.43;;;2.83;;
56329;SDS011;42236;48.058;10.632;2023-04-27T03:53:54;4.43;;;3.00;;
56329;SDS011;42236;48.058;10.632;2023-04-27T03:56:39;5.43;;;3.60;;
56329;SDS011;42236;48.058;10.632;2023-04-27T03:59:27;4.23;;;2.73;;
56329;SDS011;42236;48.058;10.632;2023-04-27T04:02:14;5.50;;;3.90;;
56329;SDS011;42236;48.058;10.632;2023-04-27T04:04:59;5.77;;;4.43;;
56329;SDS011;42236;48.058;10.632;2023-04-27T04:07:45;8.07;;;4.13;;
56329;SDS011;42236;48.058;10.632;2023-04-27T04:10:31;6.23;;;4.10;;
56329;SDS011;42236;48.058;10.632;2023-04-27T04:13:16;3.63;;;3.20;;
56329;SDS011;42236;48.058;10.632;2023-04-27T04:16:02;4.97;;;3.70;;
56329;SDS011;42236;48.058;10.632;2023-04-27T04:18:52;4.63;;;3.40;;
56329;SDS011;42236;48.058;10.632;2023-04-27T04:21:38;4.50;;;3.77;;
56329;SDS011;42236;48.058;10.632;2023-04-27T04:24:23;6.30;;;3.57;;
56329;SDS011;42236;48.058;10.632;2023-04-27T04:27:09;7.87;;;4.03;;
56329;SDS011;42236;48.058;10.632;2023-04-27T04:29:55;5.37;;;4.27;;
56329;SDS011;42236;48.058;10.632;2023-04-27T04:32:40;4.37;;;3.70;;
56329;SDS011;42236;48.058;10.632;2023-04-27T04:35:26;6.00;;;3.80;;
56329;SDS011;42236;48.058;10.632;2023-04-27T04:38:11;6.47;;;3.93;;
56329;SDS011;42236;48.058;10.632;2023-04-27T04:40:57;4.63;;;4.20;;
56329;SDS011;42236;48.058;10.632;2023-04-27T04:43:43;7.00;;;4.57;;
56329;SDS011;42236;48.058;10.632;2023-04-27T04:46:29;7.93;;;4.83;;
56329;SDS011;42236;48.058;10.632;2023-04-27T04:49:14;5.73;;;4.23;;
56329;SDS011;42236;48.058;10.632;2023-04-27T04:52:00;4.90;;;4.13;;
56329;SDS011;42236;48.058;10.632;2023-04-27T04:54:46;5.93;;;4.60;;
56329;SDS011;42236;48.058;10.632;2023-04-27T04:57:32;6.00;;;4.67;;
56329;SDS011;42236;48.058;10.632;2023-04-27T05:00:17;8.70;;;5.77;;
56329;SDS011;42236;48.058;10.632;2023-04-27T05:03:03;10.17;;;6.23;;
56329;SDS011;42236;48.058;10.632;2023-04-27T05:05:51;10.23;;;7.37;;
56329;SDS011;42236;48.058;10.632;2023-04-27T05:08:36;12.87;;;7.00;;
56329;SDS011;42236;48.058;10.632;2023-04-27T05:11:22;10.23;;;7.37;;
56329;SDS011;42236;48.058;10.632;2023-04-27T05:14:08;9.73;;;7.60;;
56329;SDS011;42236;48.058;10.632;2023-04-27T05:16:53;16.73;;;9.73;;
56329;SDS011;42236;48.058;10.632;2023-04-27T05:19:39;13.63;;;9.40;;
56329;SDS011;42236;48.058;10.632;2023-04-27T05:22:25;10.83;;;7.47;;
56329;SDS011;42236;48.058;10.632;2023-04-27T05:25:11;11.43;;;7.53;;
56329;SDS011;42236;48.058;10.632;2023-04-27T05:27:57;13.63;;;7.20;;
56329;SDS011;42236;48.058;10.632;2023-04-27T05:30:42;9.20;;;5.93;;
56329;SDS011;42236;48.058;10.632;2023-04-27T05:33:28;9.13;;;5.60;;
56329;SDS011;42236;48.058;10.632;2023-04-27T05:36:14;9.93;;;5.37;;
56329;SDS011;42236;48.058;10.632;2023-04-27T05:38:59;8.90;;;5.50;;
56329;SDS011;42236;48.058;10.632;2023-04-27T05:41:45;8.27;;;5.90;;
56329;SDS011;42236;48.058;10.632;2023-04-27T05:44:31;16.63;;;5.43;;
56329;SDS011;42236;48.058;10.632;2023-04-27T05:47:17;7.73;;;5.70;;
56329;SDS011;42236;48.058;10.632;2023-04-27T05:50:02;8.53;;;5.43;;
56329;SDS011;42236;48.058;10.632;2023-04-27T05:52:48;6.03;;;5.43;;
56329;SDS011;42236;48.058;10.632;2023-04-27T05:55:34;13.77;;;6.00;;
56329;SDS011;42236;48.058;10.632;2023-04-27T05:58:19;6.87;;;5.77;;
56329;SDS011;42236;48.058;10.632;2023-04-27T06:01:06;12.80;;;5.80;;
56329;SDS011;42236;48.058;10.632;2023-04-27T06:03:52;8.13;;;5.87;;
56329;SDS011;42236;48.058;10.632;2023-04-27T06:06:37;11.43;;;6.23;;
56329;SDS011;42236;48.058;10.632;2023-04-27T06:09:23;12.20;;;5.83;;
56329;SDS011;42236;48.058;10.632;2023-04-27T06:12:09;11.60;;;5.90;;
56329;SDS011;42236;48.058;10.632;2023-04-27T06:14:55;8.50;;;5.43;;
56329;SDS011;42236;48.058;10.632;2023-04-27T06:17:40;7.63;;;6.00;;
56329;SDS011;42236;48.058;10.632;2023-04-27T06:20:28;8.03;;;6.17;;
56329;SDS011;42236;48.058;10.632;2023-04-27T06:23:13;7.70;;;5.13;;
56329;SDS011;42236;48.058;10.632;2023-04-27T06:25:59;9.33;;;5.10;;
56329;SDS011;42236;48.058;10.632;2023-04-27T06:28:46;7.43;;;5.03;;
56329;SDS011;42236;48.058;10.632;2023-04-27T06:31:31;7.53;;;4.83;;
56329;SDS011;42236;48.058;10.632;2023-04-27T06:34:17;24.37;;;6.40;;
56329;SDS011;42236;48.058;10.632;2023-04-27T06:37:03;9.90;;;4.33;;
56329;SDS011;42236;48.058;10.632;2023-04-27T06:39:49;4.90;;;4.37;;
56329;SDS011;42236;48.058;10.632;2023-04-27T06:42:34;8.80;;;4.60;;
56329;SDS011;42236;48.058;10.632;2023-04-27T06:45:20;7.13;;;4.90;;
56329;SDS011;42236;48.058;10.632;2023-04-27T06:48:06;7.00;;;4.57;;
56329;SDS011;42236;48.058;10.632;2023-04-27T06:50:51;11.00;;;4.17;;
56329;SDS011;42236;48.058;10.632;2023-04-27T06:53:40;7.67;;;5.27;;
56329;SDS011;42236;48.058;10.632;2023-04-27T06:56:26;5.63;;;3.33;;
56329;SDS011;42236;48.058;10.632;2023-04-27T06:59:11;5.67;;;3.80;;
56329;SDS011;42236;48.058;10.632;2023-04-27T07:01:57;6.83;;;4.20;;
56329;SDS011;42236;48.058;10.632;2023-04-27T07:04:43;5.17;;;4.40;;
56329;SDS011;42236;48.058;10.632;2023-04-27T07:07:29;6.07;;;3.80;;
56329;SDS011;42236;48.058;10.632;2023-04-27T07:10:15;6.23;;;3.47;;
56329;SDS011;42236;48.058;10.632;2023-04-27T07:13:00;7.47;;;4.30;;
56329;SDS011;42236;48.058;10.632;2023-04-27T07:15:46;4.97;;;3.83;;
56329;SDS011;42236;48.058;10.632;2023-04-27T07:18:32;7.00;;;3.45;;
56329;SDS011;42236;48.058;10.632;2023-04-27T07:21:17;4.60;;;3.73;;
56329;SDS011;42236;48.058;10.632;2023-04-27T07:24:03;3.60;;;3.30;;
56329;SDS011;42236;48.058;10.632;2023-04-27T07:26:49;7.57;;;3.10;;
56329;SDS011;42236;48.058;10.632;2023-04-27T07:29:35;5.60;;;3.50;;
56329;SDS011;42236;48.058;10.632;2023-04-27T07:32:22;4.40;;;3.20;;
56329;SDS011;42236;48.058;10.632;2023-04-27T07:35:08;5.10;;;3.30;;
56329;SDS011;42236;48.058;10.632;2023-04-27T07:37:54;5.68;;;3.00;;
56329;SDS011;42236;48.058;10.632;2023-04-27T07:40:40;4.47;;;3.40;;
56329;SDS011;42236;48.058;10.632;2023-04-27T07:43:26;3.95;;;3.28;;
56329;SDS011;42236;48.058;10.632;2023-04-27T07:46:12;9.30;;;3.53;;
56329;SDS011;42236;48.058;10.632;2023-04-27T07:48:58;4.72;;;3.15;;
56329;SDS011;42236;48.058;10.632;2023-04-27T07:51:44;4.55;;;2.97;;
56329;SDS011;42236;48.058;10.632;2023-04-27T07:54:30;5.35;;;2.70;;
56329;SDS011;42236;48.058;10.632;2023-04-27T07:57:15;3.25;;;2.95;;
56329;SDS011;42236;48.058;10.632;2023-04-27T08:00:01;3.95;;;2.90;;
56329;SDS011;42236;48.058;10.632;2023-04-27T08:02:51;4.60;;;3.17;;
56329;SDS011;42236;48.058;10.632;2023-04-27T08:05:38;5.28;;;2.95;;
56329;SDS011;42236;48.058;10.632;2023-04-27T08:08:23;3.72;;;3.13;;
56329;SDS011;42236;48.058;10.632;2023-04-27T08:11:09;4.50;;;3.10;;
56329;SDS011;42236;48.058;10.632;2023-04-27T08:13:56;3.35;;;2.95;;
56329;SDS011;42236;48.058;10.632;2023-04-27T08:16:42;5.00;;;2.88;;
56329;SDS011;42236;48.058;10.632;2023-04-27T08:19:28;3.95;;;3.28;;
56329;SDS011;42236;48.058;10.632;2023-04-27T08:22:14;5.78;;;3.33;;
56329;SDS011;42236;48.058;10.632;2023-04-27T08:24:59;4.65;;;2.50;;
56329;SDS011;42236;48.058;10.632;2023-04-27T08:27:45;3.95;;;2.40;;
56329;SDS011;42236;48.058;10.632;2023-04-27T08:30:31;6.20;;;2.72;;
56329;SDS011;42236;48.058;10.632;2023-04-27T08:33:17;3.10;;;1.98;;
56329;SDS011;42236;48.058;10.632;2023-04-27T08:36:02;3.70;;;2.63;;
56329;SDS011;42236;48.058;10.632;2023-04-27T08:38:52;5.22;;;2.60;;
56329;SDS011;42236;48.058;10.632;2023-04-27T08:41:40;4.93;;;2.47;;
56329;SDS011;42236;48.058;10.632;2023-04-27T08:44:26;5.65;;;2.88;;
56329;SDS011;42236;48.058;10.632;2023-04-27T08:47:12;3.60;;;2.63;;
56329;SDS011;42236;48.058;10.632;2023-04-27T08:49:58;4.82;;;2.95;;
56329;SDS011;42236;48.058;10.632;2023-04-27T08:52:45;3.63;;;2.70;;
56329;SDS011;42236;48.058;10.632;2023-04-27T08:55:31;3.78;;;2.60;;
56329;SDS011;42236;48.058;10.632;2023-04-27T08:58:17;4.53;;;3.38;;
56329;SDS011;42236;48.058;10.632;2023-04-27T09:01:06;5.03;;;2.65;;
56329;SDS011;42236;48.058;10.632;2023-04-27T09:03:56;3.67;;;2.45;;
56329;SDS011;42236;48.058;10.632;2023-04-27T09:06:46;2.92;;;2.03;;
56329;SDS011;42236;48.058;10.632;2023-04-27T09:09:33;2.85;;;2.55;;
56329;SDS011;42236;48.058;10.632;2023-04-27T09:12:22;3.25;;;2.95;;
56329;SDS011;42236;48.058;10.632;2023-04-27T09:15:07;3.30;;;2.40;;
56329;SDS011;42236;48.058;10.632;2023-04-27T09:17:54;2.63;;;2.30;;
56329;SDS011;42236;48.058;10.632;2023-04-27T09:20:44;3.05;;;2.78;;
56329;SDS011;42236;48.058;10.632;2023-04-27T09:23:35;3.20;;;2.90;;
56329;SDS011;42236;48.058;10.632;2023-04-27T09:26:23;3.92;;;2.60;;
56329;SDS011;42236;48.058;10.632;2023-04-27T09:29:11;4.53;;;2.22;;
56329;SDS011;42236;48.058;10.632;2023-04-27T09:31:57;2.90;;;2.47;;
56329;SDS011;42236;48.058;10.632;2023-04-27T09:34:42;5.97;;;3.08;;
56329;SDS011;42236;48.058;10.632;2023-04-27T09:37:28;2.58;;;2.10;;
56329;SDS011;42236;48.058;10.632;2023-04-27T09:40:15;4.88;;;3.15;;
56329;SDS011;42236;48.058;10.632;2023-04-27T09:43:02;3.38;;;2.88;;
56329;SDS011;42236;48.058;10.632;2023-04-27T09:45:48;3.30;;;2.97;;
56329;SDS011;42236;48.058;10.632;2023-04-27T09:48:37;6.88;;;2.38;;
56329;SDS011;42236;48.058;10.632;2023-04-27T09:51:23;2.65;;;2.17;;
56329;SDS011;42236;48.058;10.632;2023-04-27T09:54:08;3.45;;;2.58;;
56329;SDS011;42236;48.058;10.632;2023-04-27T10:00:31;4.63;;;2.35;;
56329;SDS011;42236;48.058;10.632;2023-04-27T10:09:49;4.78;;;1.95;;
56329;SDS011;42236;48.058;10.632;2023-04-27T10:12:38;4.45;;;1.95;;
56329;SDS011;42236;48.058;10.632;2023-04-27T10:15:24;5.38;;;2.70;;
56329;SDS011;42236;48.058;10.632;2023-04-27T10:18:23;2.75;;;2.10;;
56329;SDS011;42236;48.058;10.632;2023-04-27T10:21:16;4.22;;;3.03;;
56329;SDS011;42236;48.058;10.632;2023-04-27T10:24:08;2.88;;;2.30;;
56329;SDS011;42236;48.058;10.632;2023-04-27T10:26:58;5.28;;;2.17;;
56329;SDS011;42236;48.058;10.632;2023-04-27T10:29:46;4.65;;;2.35;;
56329;SDS011;42236;48.058;10.632;2023-04-27T10:32:32;3.30;;;3.00;;
56329;SDS011;42236;48.058;10.632;2023-04-27T10:35:18;6.30;;;2.42;;
56329;SDS011;42236;48.058;10.632;2023-04-27T10:41:01;2.80;;;2.50;;
56329;SDS011;42236;48.058;10.632;2023-04-27T10:47:16;2.58;;;2.20;;
56329;SDS011;42236;48.058;10.632;2023-04-27T10:50:04;4.60;;;2.70;;
56329;SDS011;42236;48.058;10.632;2023-04-27T10:52:58;2.90;;;2.10;;
56329;SDS011;42236;48.058;10.632;2023-04-27T10:55:46;3.33;;;1.77;;
56329;SDS011;42236;48.058;10.632;2023-04-27T10:58:37;2.97;;;1.98;;
56329;SDS011;42236;48.058;10.632;2023-04-27T11:01:49;3.47;;;2.00;;
56329;SDS011;42236;48.058;10.632;2023-04-27T11:04:47;1.80;;;1.70;;
56329;SDS011;42236;48.058;10.632;2023-04-27T11:07:33;2.28;;;2.08;;
56329;SDS011;42236;48.058;10.632;2023-04-27T11:10:19;5.90;;;1.92;;
56329;SDS011;42236;48.058;10.632;2023-04-27T11:13:23;3.22;;;1.75;;
56329;SDS011;42236;48.058;10.632;2023-04-27T11:16:10;4.55;;;2.20;;
56329;SDS011;42236;48.058;10.632;2023-04-27T11:18:56;3.88;;;1.75;;
56329;SDS011;42236;48.058;10.632;2023-04-27T11:21:49;4.80;;;2.10;;
56329;SDS011;42236;48.058;10.632;2023-04-27T11:24:35;3.88;;;2.00;;
56329;SDS011;42236;48.058;10.632;2023-04-27T11:27:20;3.88;;;2.10;;
56329;SDS011;42236;48.058;10.632;2023-04-27T11:30:17;5.60;;;2.28;;
56329;SDS011;42236;48.058;10.632;2023-04-27T11:33:07;4.25;;;2.05;;
56329;SDS011;42236;48.058;10.632;2023-04-27T11:35:54;4.13;;;2.28;;
56329;SDS011;42236;48.058;10.632;2023-04-27T11:38:41;5.80;;;2.53;;
56329;SDS011;42236;48.058;10.632;2023-04-27T11:41:36;2.38;;;2.17;;
56329;SDS011;42236;48.058;10.632;2023-04-27T11:44:25;6.35;;;2.00;;
56329;SDS011;42236;48.058;10.632;2023-04-27T11:47:15;4.32;;;2.05;;
56329;SDS011;42236;48.058;10.632;2023-04-27T11:50:04;3.45;;;1.50;;
56329;SDS011;42236;48.058;10.632;2023-04-27T11:52:52;3.45;;;2.88;;
56329;SDS011;42236;48.058;10.632;2023-04-27T11:55:37;3.47;;;2.25;;
56329;SDS011;42236;48.058;10.632;2023-04-27T11:58:26;2.05;;;1.77;;
56329;SDS011;42236;48.058;10.632;2023-04-27T12:01:13;2.67;;;1.33;;
56329;SDS011;42236;48.058;10.632;2023-04-27T12:04:00;2.88;;;1.38;;
56329;SDS011;42236;48.058;10.632;2023-04-27T12:06:46;2.50;;;1.50;;
56329;SDS011;42236;48.058;10.632;2023-04-27T12:09:32;1.58;;;1.48;;
56329;SDS011;42236;48.058;10.632;2023-04-27T12:12:18;1.90;;;1.35;;
56329;SDS011;42236;48.058;10.632;2023-04-27T12:15:06;1.33;;;1.23;;
56329;SDS011;42236;48.058;10.632;2023-04-27T12:17:53;1.45;;;1.33;;
56329;SDS011;42236;48.058;10.632;2023-04-27T12:20:39;2.55;;;1.70;;
56329;SDS011;42236;48.058;10.632;2023-04-27T12:23:24;2.15;;;1.38;;
56329;SDS011;42236;48.058;10.632;2023-04-27T12:26:10;2.65;;;1.50;;
56329;SDS011;42236;48.058;10.632;2023-04-27T12:28:57;1.38;;;1.20;;
56329;SDS011;42236;48.058;10.632;2023-04-27T12:31:43;1.30;;;1.20;;
56329;SDS011;42236;48.058;10.632;2023-04-27T12:34:29;2.42;;;1.90;;
56329;SDS011;42236;48.058;10.632;2023-04-27T12:37:24;2.67;;;1.80;;
56329;SDS011;42236;48.058;10.632;2023-04-27T12:40:10;2.10;;;1.70;;
56329;SDS011;42236;48.058;10.632;2023-04-27T12:42:56;1.38;;;1.27;;
56329;SDS011;42236;48.058;10.632;2023-04-27T12:45:42;2.08;;;1.50;;
56329;SDS011;42236;48.058;10.632;2023-04-27T12:48:28;1.65;;;1.55;;
56329;SDS011;42236;48.058;10.632;2023-04-27T12:51:14;2.00;;;1.23;;
56329;SDS011;42236;48.058;10.632;2023-04-27T12:54:20;6.53;;;1.33;;
56329;SDS011;42236;48.058;10.632;2023-04-27T12:57:14;2.17;;;1.73;;
56329;SDS011;42236;48.058;10.632;2023-04-27T13:00:04;5.35;;;1.58;;
56329;SDS011;42236;48.058;10.632;2023-04-27T13:02:54;1.30;;;1.17;;
56329;SDS011;42236;48.058;10.632;2023-04-27T13:05:44;1.88;;;1.73;;
56329;SDS011;42236;48.058;10.632;2023-04-27T13:08:33;2.45;;;1.58;;
56329;SDS011;42236;48.058;10.632;2023-04-27T13:11:23;1.65;;;1.25;;
56329;SDS011;42236;48.058;10.632;2023-04-27T13:14:09;2.35;;;1.23;;
56329;SDS011;42236;48.058;10.632;2023-04-27T13:23:41;5.82;;;1.15;;
56329;SDS011;42236;48.058;10.632;2023-04-27T13:26:27;2.55;;;1.38;;
56329;SDS011;42236;48.058;10.632;2023-04-27T13:29:13;3.53;;;1.52;;
56329;SDS011;42236;48.058;10.632;2023-04-27T13:31:59;1.40;;;1.30;;
56329;SDS011;42236;48.058;10.632;2023-04-27T13:34:48;0.70;;;0.70;;
56329;SDS011;42236;48.058;10.632;2023-04-27T13:37:34;1.70;;;1.20;;
56329;SDS011;42236;48.058;10.632;2023-04-27T13:40:20;1.42;;;1.05;;
56329;SDS011;42236;48.058;10.632;2023-04-27T13:46:33;1.85;;;1.20;;
56329;SDS011;42236;48.058;10.632;2023-04-27T13:49:22;1.30;;;1.20;;
56329;SDS011;42236;48.058;10.632;2023-04-27T13:55:48;1.38;;;1.10;;
56329;SDS011;42236;48.058;10.632;2023-04-27T13:58:46;1.33;;;1.23;;
56329;SDS011;42236;48.058;10.632;2023-04-27T14:01:31;2.60;;;1.00;;
56329;SDS011;42236;48.058;10.632;2023-04-27T14:04:18;3.95;;;1.20;;
56329;SDS011;42236;48.058;10.632;2023-04-27T14:07:03;1.65;;;1.20;;
56329;SDS011;42236;48.058;10.632;2023-04-27T14:09:49;2.17;;;0.90;;
56329;SDS011;42236;48.058;10.632;2023-04-27T14:12:38;1.15;;;1.00;;
56329;SDS011;42236;48.058;10.632;2023-04-27T14:15:24;1.15;;;1.00;;
56329;SDS011;42236;48.058;10.632;2023-04-27T14:18:10;2.20;;;1.27;;
56329;SDS011;42236;48.058;10.632;2023-04-27T14:20:56;1.83;;;1.13;;
56329;SDS011;42236;48.058;10.632;2023-04-27T14:23:41;2.08;;;1.15;;
56329;SDS011;42236;48.058;10.632;2023-04-27T14:26:30;1.38;;;0.85;;
56329;SDS011;42236;48.058;10.632;2023-04-27T14:29:25;1.60;;;1.25;;
56329;SDS011;42236;48.058;10.632;2023-04-27T14:32:11;0.80;;;0.80;;
56329;SDS011;42236;48.058;10.632;2023-04-27T14:34:58;5.90;;;1.20;;
56329;SDS011;42236;48.058;10.632;2023-04-27T14:37:44;1.88;;;1.30;;
56329;SDS011;42236;48.058;10.632;2023-04-27T14:40:30;1.10;;;1.00;;
56329;SDS011;42236;48.058;10.632;2023-04-27T14:43:16;3.25;;;1.20;;
56329;SDS011;42236;48.058;10.632;2023-04-27T14:46:02;2.05;;;1.20;;
56329;SDS011;42236;48.058;10.632;2023-04-27T14:48:48;5.35;;;1.00;;
56329;SDS011;42236;48.058;10.632;2023-04-27T14:51:49;1.20;;;1.10;;
56329;SDS011;42236;48.058;10.632;2023-04-27T14:54:37;0.98;;;0.98;;
56329;SDS011;42236;48.058;10.632;2023-04-27T14:57:28;1.20;;;1.10;;
56329;SDS011;42236;48.058;10.632;2023-04-27T15:00:14;2.40;;;1.17;;
56329;SDS011;42236;48.058;10.632;2023-04-27T15:03:00;2.22;;;1.30;;
56329;SDS011;42236;48.058;10.632;2023-04-27T15:05:46;2.30;;;1.00;;
56329;SDS011;42236;48.058;10.632;2023-04-27T15:08:38;1.55;;;1.00;;
56329;SDS011;42236;48.058;10.632;2023-04-27T15:11:24;2.53;;;1.30;;
56329;SDS011;42236;48.058;10.632;2023-04-27T15:14:10;1.58;;;0.88;;
56329;SDS011;42236;48.058;10.632;2023-04-27T15:16:56;1.92;;;1.00;;
56329;SDS011;42236;48.058;10.632;2023-04-27T15:19:44;1.80;;;1.13;;
56329;SDS011;42236;48.058;10.632;2023-04-27T15:22:30;1.73;;;1.10;;
56329;SDS011;42236;48.058;10.632;2023-04-27T15:25:16;3.92;;;1.10;;
56329;SDS011;42236;48.058;10.632;2023-04-27T15:28:15;1.27;;;1.15;;
56329;SDS011;42236;48.058;10.632;2023-04-27T15:31:02;1.95;;;1.00;;
56329;SDS011;42236;48.058;10.632;2023-04-27T15:33:48;3.28;;;0.90;;
56329;SDS011;42236;48.058;10.632;2023-04-27T15:36:34;1.85;;;1.30;;
56329;SDS011;42236;48.058;10.632;2023-04-27T15:39:22;1.90;;;1.05;;
56329;SDS011;42236;48.058;10.632;2023-04-27T15:45:18;1.10;;;1.00;;
56329;SDS011;42236;48.058;10.632;2023-04-27T15:48:04;0.93;;;0.90;;
56329;SDS011;42236;48.058;10.632;2023-04-27T15:50:50;1.13;;;1.02;;
56329;SDS011;42236;48.058;10.632;2023-04-27T15:53:36;2.83;;;0.85;;
56329;SDS011;42236;48.058;10.632;2023-04-27T15:57:00;4.88;;;1.00;;
56329;SDS011;42236;48.058;10.632;2023-04-27T15:59:48;1.65;;;1.13;;
56329;SDS011;42236;48.058;10.632;2023-04-27T16:02:34;2.03;;;0.95;;
56329;SDS011;42236;48.058;10.632;2023-04-27T16:05:20;0.80;;;0.80;;
56329;SDS011;42236;48.058;10.632;2023-04-27T16:08:08;2.03;;;1.20;;
56329;SDS011;42236;48.058;10.632;2023-04-27T16:10:54;1.00;;;0.90;;
56329;SDS011;42236;48.058;10.632;2023-04-27T16:13:40;1.02;;;0.85;;
56329;SDS011;42236;48.058;10.632;2023-04-27T16:16:29;0.85;;;0.70;;
56329;SDS011;42236;48.058;10.632;2023-04-27T16:19:16;0.70;;;0.70;;
56329;SDS011;42236;48.058;10.632;2023-04-27T16:22:03;0.82;;;0.70;;
56329;SDS011;42236;48.058;10.632;2023-04-27T16:24:48;1.75;;;0.70;;
56329;SDS011;42236;48.058;10.632;2023-04-27T16:28:03;4.68;;;0.80;;
56329;SDS011;42236;48.058;10.632;2023-04-27T16:30:49;2.08;;;0.70;;
56329;SDS011;42236;48.058;10.632;2023-04-27T16:33:35;1.48;;;0.63;;
56329;SDS011;42236;48.058;10.632;2023-04-27T16:36:21;0.77;;;0.77;;
56329;SDS011;42236;48.058;10.632;2023-04-27T16:39:07;0.85;;;0.82;;
56329;SDS011;42236;48.058;10.632;2023-04-27T16:41:53;1.60;;;0.80;;
56329;SDS011;42236;48.058;10.632;2023-04-27T16:44:39;2.70;;;1.10;;
56329;SDS011;42236;48.058;10.632;2023-04-27T16:47:25;0.65;;;0.65;;
56329;SDS011;42236;48.058;10.632;2023-04-27T16:50:11;3.22;;;1.13;;
56329;SDS011;42236;48.058;10.632;2023-04-27T16:53:06;1.67;;;0.60;;
56329;SDS011;42236;48.058;10.632;2023-04-27T16:55:57;1.17;;;0.80;;
56329;SDS011;42236;48.058;10.632;2023-04-27T16:58:45;3.80;;;0.73;;
56329;SDS011;42236;48.058;10.632;2023-04-27T17:01:31;0.80;;;0.70;;
56329;SDS011;42236;48.058;10.632;2023-04-27T17:04:17;0.75;;;0.70;;